createdAt,value
2022-08-24T00:00:57.857Z,19.10
2022-08-24T00:04:41.305Z,19.10
2022-08-24T00:08:24.182Z,19.10
2022-08-24T00:12:07.245Z,19.10
2022-08-24T00:15:50.565Z,19.10
2022-08-24T00:19:34.822Z,19.00
2022-08-24T00:23:17.570Z,19.00
2022-08-24T00:27:00.539Z,19.00
2022-08-24T00:30:43.616Z,19.00
2022-08-24T00:34:27.745Z,19.00
2022-08-24T00:38:11.809Z,19.00
2022-08-24T00:41:55.149Z,19.10
2022-08-24T00:45:43.935Z,19.10
2022-08-24T00:49:29.999Z,19.20
2022-08-24T00:53:20.662Z,19.20
2022-08-24T00:57:07.110Z,19.10
2022-08-24T01:00:55.832Z,19.10
2022-08-24T01:04:44.265Z,19.10
2022-08-24T01:08:28.912Z,19.10
2022-08-24T01:12:12.266Z,18.90
2022-08-24T01:15:59.038Z,18.90
2022-08-24T01:19:45.928Z,18.90
2022-08-24T01:23:40.329Z,18.90
2022-08-24T01:27:26.329Z,18.90
2022-08-24T01:31:11.156Z,18.80
2022-08-24T01:34:53.997Z,18.80
2022-08-24T01:38:38.246Z,18.70
2022-08-24T01:42:20.981Z,18.70
2022-08-24T01:46:04.018Z,18.70
2022-08-24T01:49:49.426Z,18.60
2022-08-24T01:53:32.211Z,18.60
2022-08-24T01:57:17.191Z,18.50
2022-08-24T02:01:00.144Z,18.40
2022-08-24T02:04:44.242Z,18.40
2022-08-24T02:08:27.648Z,18.40
2022-08-24T02:12:10.484Z,18.40
2022-08-24T02:15:54.624Z,18.30
2022-08-24T02:19:37.776Z,18.30
2022-08-24T02:23:21.067Z,18.30
2022-08-24T02:27:03.812Z,18.20
2022-08-24T02:30:47.153Z,18.20
2022-08-24T02:34:31.208Z,18.10
2022-08-24T02:38:13.961Z,18.10
2022-08-24T02:41:56.722Z,18.10
2022-08-24T02:45:40.724Z,18.00
2022-08-24T02:49:23.969Z,17.90
2022-08-24T02:53:07.982Z,17.80
2022-08-24T02:56:50.859Z,17.80
2022-08-24T03:00:33.750Z,17.70
2022-08-24T03:04:16.591Z,17.70
2022-08-24T03:07:59.184Z,17.60
2022-08-24T03:11:45.664Z,17.50
2022-08-24T03:15:29.421Z,17.50
2022-08-24T03:19:11.961Z,17.40
2022-08-24T03:22:54.627Z,17.40
2022-08-24T03:26:37.139Z,17.30
2022-08-24T03:30:21.865Z,17.30
2022-08-24T03:34:04.711Z,17.30
2022-08-24T03:37:47.773Z,17.30
2022-08-24T03:41:30.150Z,17.20
2022-08-24T03:45:16.391Z,17.20
2022-08-24T03:49:00.860Z,17.10
2022-08-24T03:52:43.633Z,17.10
2022-08-24T03:56:26.394Z,17.00
2022-08-24T04:00:12.030Z,17.00
2022-08-24T04:03:55.203Z,16.90
2022-08-24T04:07:39.376Z,16.90
2022-08-24T04:11:24.683Z,16.90
2022-08-24T04:15:08.335Z,16.90
2022-08-24T04:18:51.530Z,16.90
2022-08-24T04:22:34.955Z,16.70
2022-08-24T04:26:43.888Z,16.50
2022-08-24T04:30:23.209Z,16.50
2022-08-24T04:34:06.067Z,16.50
2022-08-24T04:37:49.000Z,16.60
2022-08-24T04:41:32.960Z,16.60
2022-08-24T04:45:17.222Z,16.70
2022-08-24T04:48:59.801Z,16.90
2022-08-24T04:52:42.997Z,17.00
2022-08-24T04:56:26.960Z,17.10
2022-08-24T05:00:12.383Z,17.30
2022-08-24T05:03:56.678Z,17.40
2022-08-24T05:07:39.799Z,17.60
2022-08-24T05:11:23.062Z,17.70
2022-08-24T05:15:07.067Z,17.80
2022-08-24T05:18:51.103Z,17.90
2022-08-24T05:22:33.523Z,17.90
2022-08-24T05:26:18.322Z,17.90
2022-08-24T05:30:01.308Z,18.00
2022-08-24T05:33:44.009Z,18.10
2022-08-24T05:37:27.861Z,18.30
2022-08-24T05:41:10.459Z,18.50
2022-08-24T05:44:52.961Z,18.60
2022-08-24T05:48:37.209Z,18.70
2022-08-24T05:52:20.621Z,18.80
2022-08-24T05:56:06.126Z,18.90
2022-08-24T05:59:48.905Z,19.10
2022-08-24T06:03:31.839Z,19.20
2022-08-24T06:07:14.861Z,19.40
2022-08-24T06:10:57.969Z,19.50
2022-08-24T06:14:45.840Z,19.50
2022-08-24T06:18:28.576Z,19.70
2022-08-24T06:22:11.389Z,19.90
2022-08-24T06:26:15.439Z,20.00
2022-08-24T06:30:01.982Z,20.30
2022-08-24T06:33:44.557Z,20.40
2022-08-24T06:37:29.309Z,20.50
2022-08-24T06:41:13.021Z,20.70
2022-08-24T06:44:56.323Z,20.90
2022-08-24T06:48:40.355Z,21.00
2022-08-24T06:52:23.011Z,21.20
2022-08-24T06:56:08.926Z,21.30
2022-08-24T06:59:51.302Z,21.40
2022-08-24T07:03:34.016Z,21.60
2022-08-24T07:07:18.856Z,21.50
2022-08-24T07:11:02.595Z,21.70
2022-08-24T07:14:45.141Z,21.80
2022-08-24T07:18:28.837Z,22.00
2022-08-24T07:22:11.679Z,22.10
2022-08-24T07:25:57.310Z,22.20
2022-08-24T07:29:59.993Z,22.30
2022-08-24T07:33:44.996Z,22.50
2022-08-24T07:37:40.719Z,22.70
2022-08-24T07:41:43.431Z,22.80
2022-08-24T07:45:30.107Z,22.80
2022-08-24T07:49:33.156Z,22.80
2022-08-24T07:53:20.843Z,22.90
2022-08-24T07:57:08.484Z,23.10
2022-08-24T08:00:51.349Z,23.20
2022-08-24T08:04:33.817Z,23.40
2022-08-24T08:08:16.210Z,23.50
2022-08-24T08:11:58.823Z,23.40
2022-08-24T08:15:43.055Z,23.50
2022-08-24T08:19:25.720Z,23.60
2022-08-24T08:23:27.433Z,23.70
2022-08-24T08:27:10.013Z,23.80
2022-08-24T08:30:54.369Z,23.90
2022-08-24T08:34:36.908Z,24.10
2022-08-24T08:38:19.711Z,24.00
2022-08-24T08:42:18.096Z,23.90
2022-08-24T08:46:25.763Z,24.10
2022-08-24T08:50:17.104Z,24.10
2022-08-24T08:54:27.720Z,24.40
2022-08-24T08:58:24.524Z,24.50
2022-08-24T09:02:23.333Z,24.70
2022-08-24T09:06:21.640Z,25.00
2022-08-24T09:10:29.569Z,25.00
2022-08-24T09:15:04.207Z,25.10
2022-08-24T09:19:00.871Z,25.30
2022-08-24T09:22:47.733Z,25.30
2022-08-24T09:26:36.888Z,25.50
2022-08-24T09:30:23.481Z,25.40
2022-08-24T09:34:19.874Z,25.80
2022-08-24T09:38:15.596Z,26.00
2022-08-24T09:42:23.894Z,25.80
2022-08-24T09:46:38.293Z,25.80
2022-08-24T09:51:11.094Z,25.60
2022-08-24T09:55:29.493Z,25.70
2022-08-24T09:59:48.383Z,26.00
2022-08-24T10:03:51.035Z,26.20
2022-08-24T10:07:50.395Z,26.30
2022-08-24T10:11:42.360Z,26.20
2022-08-24T10:15:29.977Z,25.70
2022-08-24T10:19:27.945Z,26.30
2022-08-24T10:23:46.750Z,26.70
2022-08-24T10:27:47.794Z,26.60
2022-08-24T10:31:41.111Z,26.70
2022-08-24T10:35:28.804Z,26.20
2022-08-24T10:39:45.797Z,26.30
2022-08-24T10:43:51.347Z,26.30
2022-08-24T10:47:37.159Z,26.50
2022-08-24T10:51:34.998Z,26.50
2022-08-24T10:55:23.368Z,26.70
2022-08-24T10:59:17.414Z,26.70
2022-08-24T11:03:09.458Z,26.50
2022-08-24T11:07:08.432Z,26.90
2022-08-24T11:11:10.201Z,26.80
2022-08-24T11:14:53.697Z,26.80
2022-08-24T11:18:49.381Z,27.00
2022-08-24T11:22:37.002Z,26.80
2022-08-24T11:26:23.184Z,26.90
2022-08-24T11:30:13.559Z,26.80
2022-08-24T11:34:00.434Z,26.90
2022-08-24T11:37:43.959Z,26.90
2022-08-24T11:41:34.456Z,26.90
2022-08-24T11:45:24.622Z,27.30
2022-08-24T11:49:13.795Z,27.50
2022-08-24T11:53:12.139Z,27.60
2022-08-24T11:57:08.855Z,27.60
2022-08-24T12:00:58.382Z,27.70
2022-08-24T12:04:51.749Z,27.70
2022-08-24T12:08:40.424Z,27.30
2022-08-24T12:12:33.024Z,27.10
2022-08-24T12:16:24.220Z,27.30
2022-08-24T12:20:19.624Z,27.00
2022-08-24T12:24:06.156Z,27.20
2022-08-24T12:27:52.507Z,27.20
2022-08-24T12:31:43.008Z,27.60
2022-08-24T12:35:31.585Z,27.80
2022-08-24T12:39:21.203Z,28.20
2022-08-24T12:43:08.650Z,28.20
2022-08-24T12:46:54.822Z,28.40
2022-08-24T12:50:47.731Z,28.20
2022-08-24T12:54:59.866Z,27.80
2022-08-24T12:58:58.372Z,27.80
2022-08-24T13:02:48.199Z,28.00
2022-08-24T13:06:45.982Z,28.10
2022-08-24T13:10:40.065Z,28.50
2022-08-24T13:14:26.289Z,28.50
2022-08-24T13:18:38.792Z,28.40
2022-08-24T13:22:49.858Z,28.60
2022-08-24T13:26:32.774Z,28.10
2022-08-24T13:30:38.592Z,28.30
2022-08-24T13:34:41.807Z,28.10
2022-08-24T13:38:45.231Z,28.30
2022-08-24T13:42:58.306Z,28.10
2022-08-24T13:46:53.078Z,28.10
2022-08-24T13:50:42.200Z,27.80
2022-08-24T13:54:32.966Z,27.80
2022-08-24T13:58:23.901Z,28.00
2022-08-24T14:02:27.615Z,28.00
2022-08-24T14:06:28.015Z,28.30
2022-08-24T14:10:24.273Z,28.20
2022-08-24T14:14:12.437Z,28.50
2022-08-24T14:18:11.340Z,28.50
2022-08-24T14:22:00.586Z,28.00
2022-08-24T14:25:43.568Z,27.90
2022-08-24T14:29:45.329Z,28.00
2022-08-24T14:33:34.093Z,27.80
2022-08-24T14:37:23.060Z,28.10
2022-08-24T14:41:30.584Z,28.30
2022-08-24T14:45:23.177Z,28.50
2022-08-24T14:49:11.017Z,28.60
2022-08-24T14:53:02.961Z,28.20
2022-08-24T14:57:03.774Z,28.10
2022-08-24T15:01:26.409Z,28.00
2022-08-24T15:05:19.091Z,27.80
2022-08-24T15:09:11.508Z,28.10
2022-08-24T15:13:03.576Z,28.20
2022-08-24T15:16:53.605Z,28.40
2022-08-24T15:21:00.683Z,28.20
2022-08-24T15:24:52.353Z,28.30
2022-08-24T15:28:35.908Z,28.00
2022-08-24T15:32:21.676Z,27.60
2022-08-24T15:36:14.643Z,27.80
2022-08-24T15:39:57.617Z,28.00
2022-08-24T15:43:45.121Z,27.70
2022-08-24T15:47:31.353Z,27.90
2022-08-24T15:51:34.452Z,27.90
2022-08-24T15:55:34.404Z,28.20
2022-08-24T15:59:28.107Z,28.20
2022-08-24T16:03:23.065Z,28.30
2022-08-24T16:07:06.961Z,28.10
2022-08-24T16:10:52.407Z,28.20
2022-08-24T16:14:36.929Z,28.10
2022-08-24T16:18:21.275Z,28.10
2022-08-24T16:22:09.007Z,28.30
2022-08-24T16:26:11.729Z,28.20
2022-08-24T16:29:55.918Z,28.30
2022-08-24T16:33:44.642Z,28.30
2022-08-24T16:37:28.547Z,28.30
2022-08-24T16:41:12.278Z,28.20
2022-08-24T16:44:56.138Z,28.00
2022-08-24T16:48:39.448Z,28.00
2022-08-24T16:52:22.740Z,28.00
2022-08-24T16:56:08.816Z,28.00
2022-08-24T16:59:52.965Z,28.00
2022-08-24T17:03:35.456Z,28.10
2022-08-24T17:07:23.953Z,28.10
2022-08-24T17:11:08.540Z,27.80
2022-08-24T17:14:51.258Z,27.80
2022-08-24T17:18:33.850Z,27.80
2022-08-24T17:22:16.894Z,27.80
2022-08-24T17:25:59.460Z,27.60
2022-08-24T17:29:44.288Z,27.50
2022-08-24T17:33:27.271Z,27.30
2022-08-24T17:37:11.082Z,27.10
2022-08-24T17:40:53.872Z,26.70
2022-08-24T17:44:37.036Z,26.50
2022-08-24T17:48:26.009Z,26.30
2022-08-24T17:52:08.618Z,26.20
2022-08-24T17:55:51.492Z,26.00
2022-08-24T17:59:36.137Z,26.00
2022-08-24T18:03:20.345Z,25.90
2022-08-24T18:07:05.697Z,25.70
2022-08-24T18:10:48.868Z,25.60
2022-08-24T18:14:34.490Z,25.40
2022-08-24T18:18:17.447Z,25.20
2022-08-24T18:22:02.042Z,25.00
2022-08-24T18:25:49.567Z,24.80
2022-08-24T18:29:33.543Z,24.60
2022-08-24T18:33:17.546Z,24.30
2022-08-24T18:37:01.883Z,24.20
2022-08-24T18:40:46.865Z,24.10
2022-08-24T18:44:36.370Z,23.90
2022-08-24T18:48:20.789Z,23.70
2022-08-24T18:52:07.739Z,23.60
2022-08-24T18:55:50.072Z,23.40
2022-08-24T18:59:33.272Z,23.30
2022-08-24T19:03:19.886Z,23.20
2022-08-24T19:07:03.975Z,23.00
2022-08-24T19:10:46.789Z,22.90
2022-08-24T19:14:29.299Z,22.90
2022-08-24T19:18:11.912Z,22.80
2022-08-24T19:21:56.384Z,22.80
2022-08-24T19:25:42.437Z,22.70
2022-08-24T19:29:51.801Z,22.60
2022-08-24T19:33:30.119Z,22.50
2022-08-24T19:37:12.885Z,22.40
2022-08-24T19:40:58.762Z,22.40
2022-08-24T19:44:59.133Z,22.30
2022-08-24T19:48:41.700Z,22.20
2022-08-24T19:52:24.372Z,22.20
2022-08-24T19:56:08.863Z,22.10
2022-08-24T19:59:54.053Z,22.00
2022-08-24T20:03:36.968Z,21.90
2022-08-24T20:07:19.766Z,21.90
2022-08-24T20:11:02.694Z,21.80
2022-08-24T20:14:46.914Z,21.70
2022-08-24T20:18:32.358Z,21.70
2022-08-24T20:22:14.814Z,21.60
2022-08-24T20:25:58.593Z,21.60
2022-08-24T20:29:41.564Z,21.50
2022-08-24T20:33:27.562Z,21.50
2022-08-24T20:37:11.461Z,21.40
2022-08-24T20:40:54.224Z,21.30
2022-08-24T20:44:37.018Z,21.30
2022-08-24T20:48:27.259Z,21.20
2022-08-24T20:52:10.264Z,21.20
2022-08-24T20:55:53.751Z,21.10
2022-08-24T20:59:36.663Z,21.10
2022-08-24T21:03:19.828Z,21.10
2022-08-24T21:07:03.903Z,21.10
2022-08-24T21:10:47.222Z,21.00
2022-08-24T21:14:30.163Z,21.00
2022-08-24T21:18:15.420Z,20.90
2022-08-24T21:21:59.959Z,20.80
2022-08-24T21:25:44.058Z,20.80
2022-08-24T21:29:26.819Z,20.70
2022-08-24T21:33:27.173Z,20.70
2022-08-24T21:37:10.632Z,20.60
2022-08-24T21:40:55.385Z,20.50
2022-08-24T21:44:38.120Z,20.50
2022-08-24T21:48:20.704Z,20.40
2022-08-24T21:52:03.864Z,20.40
2022-08-24T21:55:46.431Z,20.40
2022-08-24T21:59:31.288Z,20.30
2022-08-24T22:03:14.045Z,20.40
2022-08-24T22:06:56.739Z,20.30
2022-08-24T22:10:39.683Z,20.30
2022-08-24T22:14:22.462Z,20.20
2022-08-24T22:18:06.890Z,20.20
2022-08-24T22:21:49.672Z,20.10
2022-08-24T22:25:32.531Z,20.10
2022-08-24T22:29:15.566Z,20.00
2022-08-24T22:32:58.030Z,20.00
2022-08-24T22:53:06.991Z,19.50
2022-08-24T22:56:52.552Z,19.40
2022-08-24T23:00:35.519Z,19.40
2022-08-24T23:04:20.559Z,19.40
2022-08-24T23:08:03.716Z,19.50
2022-08-24T23:11:48.133Z,19.40
2022-08-24T23:15:30.668Z,19.40
2022-08-24T23:19:30.627Z,19.30
2022-08-24T23:23:13.041Z,19.30
2022-08-24T23:26:57.394Z,19.20
2022-08-24T23:30:40.130Z,19.10
2022-08-24T23:34:23.310Z,19.10
2022-08-24T23:38:05.735Z,19.10
2022-08-24T23:41:49.623Z,19.10
2022-08-24T23:45:33.559Z,19.10
2022-08-24T23:49:18.424Z,19.20
2022-08-24T23:53:01.351Z,19.20
2022-08-24T23:56:47.107Z,19.10
